Tiempo atmosférico en la estación meteorológica de Pedrosa Del Príncipe, Burgos (771 m.)



Fecha
DESCASC
Temp. máxima en grados centígrados (hora)
DESCASC
Temp. mínima en grados centígrados (hora)
DESCASC
Temp. media en grados centígrados
DESCASC
Racha de viento máxima en m/sg (hora)
DESCASC
Velocidad máxima media en intervalos de 10 minutos(hora)
DESCASC
Precipitaciones diarias en mm
DESCASC
Precipitaciones de 00:00 a 06:00 en mm
DESCASC
Precipitaciones de 06:00 a 12:00 en mm
DESCASC
Precipitaciones de 12:00 a 18:00 en mm
DESCASC
Precipitaciones de 18:00 a 24:00 en mm
DESCASC
21-02-2019 16.4 (15:50) -3.5 (08:30) 6.4 10 (16:00) 3.89 (16:40) 0 0 0 0 0
20-02-2019 13.4 (17:00) -2.1 (06:20) 5.6 5.83 (16:10) 3.61 (16:10) 0 0 0 0 0
19-02-2019 12.8 (15:30) 1.8 (23:50) 7.3 5.83 (15:50) 3.06 (15:40) 1.8 0 1.8 0 0
18-02-2019 15.5 (15:00) 0.7 (02:30) 8.1 8.33 (14:30) 4.44 (14:20) 0 0 0 0 0
17-02-2019 16.8 (16:50) 2.2 (00:00) 9.5 5.56 (17:40) 3.33 (17:50) 0 0 0 0 0
16-02-2019 17.7 (15:30) -3.1 (-00:0) 7.3 6.39 (12:20) 2.78 (14:30) 0 0 0 0 0
15-02-2019 17 (17:00) -4.9 (-00:0) 6 4.44 (20:20) 3.33 (20:40) 0 0 0 0 0
14-02-2019 18.8 (16:40) -4.9 (-00:0) 6.9 5 (21:00) 2.78 (21:00) 0 0 0 0 0
13-02-2019 15.6 (16:30) -5 (-00:0) 5.3 3.89 (13:00) 2.5 (23:59) 0 0 0 0 0
12-02-2019 13.9 (17:20) -3.2 (-00:0) 5.3 5.28 (12:40) 3.06 (01:00) 0 0 0 0 0
11-02-2019 9.9 (16:50) -3.9 (-00:0) 3 8.06 (21:10) 5 (18:00) 0 0 0 0 0
10-02-2019 11.9 (16:00) 1.8 (00:00) 6.8 15.83 (10:10) 9.17 (12:10) 0 0 0 0 0
09-02-2019 12.2 (16:30) 4.8 (00:00) 8.5 8.33 (16:20) 5.28 (22:10) 0 0 0 0 0
08-02-2019 11.6 (15:40) -2.7 (-00:0) 4.5 9.17 (21:50) 5.28 (13:40) 0 0 0 0 0
07-02-2019 13.4 (16:20) -0.9 (-00:0) 6.2 6.39 (14:40) 3.89 (00:20) 0 0 0 0 0
06-02-2019 14.3 (16:20) -3.2 (-00:0) 5.6 8.33 (16:40) 4.44 (15:10) 0 0 0 0 0
05-02-2019 13.2 (16:40) -3.9 (-00:0) 4.6 3.33 (14:00) 1.94 (14:00) 0 0 0 0 0
04-02-2019 8.3 (16:20) -6 (-00:0) 1.2 6.39 (15:20) 3.89 (15:10) 0 0 0 0 0
03-02-2019 5.4 (15:30) -2.5 (-00:0) 1.5 11.11 (00:30) 7.22 (00:30) 0 0 0 0 0
02-02-2019 5.4 (16:20) -0.7 (-00:0) 2.4 15.83 (13:30) 8.61 (13:30) 0.2 0 0 0.2 0
01-02-2019 8.5 (00:00) 1.5 (00:00) 5 19.44 (15:00) 11.39 (11:50) 3.4 0.6 0 1.4 1.4
31-01-2019 11.3 (13:00) 7 (00:00) 9.2 20.83 (16:40) 11.11 (16:40) 8.2 1 0.2 0.4 6.6
30-01-2019 7 (14:00) -0.3 (00:00) 3.3 12.5 (14:30) 8.06 (14:30) 5.8 0 0 0.6 5.2
29-01-2019 10.9 (16:00) -2.8 (-00:0) 4 17.22 (16:00) 10.56 (15:20) 0.2 0 0.2 0 0
28-01-2019 12.9 (15:10) -1.5 (-00:0) 5.7 13.89 (15:30) 10 (15:30) 0 0 0 0 0
27-01-2019 9.8 (15:00) 0.5 (00:00) 5.2 12.22 (12:30) 7.78 (15:30) 0 0 0 0 0
26-01-2019 10.4 (15:40) -4.3 (-00:0) 3 6.94 (15:50) 4.72 (15:50) 0 0 0 0 0
25-01-2019 12.1 (15:30) -2 (-00:0) 5.1 8.33 (17:50) 4.72 (18:00) 0 0 0 0 0
24-01-2019 11.1 (16:40) 3 (00:00) 7.1 7.5 (16:50) 4.72 (17:00) 0 0 0 0 0

Gráficas

Temp. máximas Temp. mínimas Temp. medias Precipitaciones Rachas de viento máximas Velocidades máximas media en intervalos de 10 minutos

Datos horarios

Fecha y hora oficial Temperatura (ºC) Velocidad del viento (km/h) Dirección del viento Racha (km/h) Dirección de racha Precipitación (mm) Presión (hPa) Tendencia (hPa) Humedad (%)
2019-02-22 23:00:00 1 0 Calma 2 Sur 0 -- -- 73
2019-02-22 22:00:00 2.3 0 Calma 8 Este 0 -- -- 66
2019-02-22 21:00:00 5.4 4 Este 8 Este 0 -- -- 58
2019-02-22 20:00:00 8 0 Calma 4 Sudeste 0 -- -- 51
2019-02-22 19:00:00 13.8 0 Calma 9 Noroeste 0 -- -- 37
2019-02-22 18:00:00 18 6 Oeste 12 Oeste 0 -- -- 28
2019-02-22 17:00:00 18 10 Oeste 21 Oeste 0 -- -- 24
2019-02-22 16:00:00 18.4 10 Sudoeste 23 Sudoeste 0 -- -- 24
2019-02-22 15:00:00 17.9 9 Sudoeste 19 Sudoeste 0 -- -- 24
2019-02-22 14:00:00 17.2 6 Oeste 18 Sudoeste 0 -- -- 28
2019-02-22 13:00:00 15.6 3 Sudoeste 7 Sudoeste 0 -- -- 36
2019-02-22 12:00:00 12.3 0 Calma 6 Sudoeste 0 -- -- 52
2019-02-22 11:00:00 7.7 0 Calma 4 Este 0 -- -- 65
2019-02-22 10:00:00 1.9 2 Sudoeste 4 Sudoeste 0 -- -- 85
2019-02-22 09:00:00 -2.7 0 Calma 6 Nordeste 0 -- -- 93
2019-02-22 08:00:00 -4.1 4 Este 7 Este 0 -- -- 92
2019-02-22 07:00:00 -3.4 0 Calma 5 Sudoeste 0 -- -- 91
2019-02-22 06:00:00 -3.2 2 Sudoeste 3 Sudoeste 0 -- -- 91
2019-02-22 05:00:00 -2.5 0 Calma 3 Noroeste 0 -- -- 88
2019-02-22 04:00:00 -1.9 0 Calma 3 Noroeste 0 -- -- 86
2019-02-22 03:00:00 -0.9 0 Calma 9 Este 0 -- -- 86
2019-02-22 02:00:00 -0.8 7 Este 9 Este 0 -- -- 87
2019-02-22 01:00:00 -0.5 0 Calma 6 Este 0 -- -- 86
2019-02-22 00:00:00 -0.1 2 Nordeste 4 Este 0 -- -- 81
2019-02-21 23:00:00 1.4 3 Este 4 Este 0 -- -- 80
2019-02-21 22:00:00 1.9 0 Calma 5 Este 0 -- -- 75
2019-02-21 21:00:00 3.9 3 Este 5 Este 0 -- -- 71
2019-02-21 20:00:00 7.7 0 Calma 4 Sur 0 -- -- 61
2019-02-21 19:00:00 12.6 0 Calma 10 Sudoeste 0 -- -- 49
2019-02-21 18:00:00 16 5 Oeste 19 Oeste 0 -- -- 39
2019-02-21 17:00:00 16.4 12 Sudoeste 22 Sudoeste 0 -- -- 38
2019-02-21 16:00:00 16.3 12 Sudoeste 36 Sur 0 -- -- 37
2019-02-21 15:00:00 15.8 7 Oeste 22 Sudoeste 0 -- -- 39
2019-02-21 14:00:00 14.8 12 Sudoeste 23 Sudoeste 0 -- -- 43
2019-02-21 13:00:00 13.6 5 Sudoeste 12 Sudoeste 0 -- -- 54
2019-02-21 12:00:00 10.8 5 Sudoeste 12 Sudoeste 0 -- -- 63
2019-02-21 11:00:00 6 0 Calma 5 Nordeste 0 -- -- 81
2019-02-21 10:00:00 0.7 0 Calma 4 Nordeste 0 -- -- 92
2019-02-21 09:00:00 -3 0 Calma 3 Este 0 -- -- 94
2019-02-21 08:00:00 -2.5 3 Sudoeste 5 Sudoeste 0 -- -- 94
2019-02-21 07:00:00 -3.3 0 Calma 9 Este 0 -- -- 93
2019-02-21 06:00:00 -3.3 3 Nordeste 5 Nordeste 0 -- -- 93
2019-02-21 05:00:00 -2.8 0 Calma -- -- 0 -- -- 93
2019-02-21 04:00:00 -2.6 2 Nordeste 4 Este 0 -- -- 92
2019-02-21 03:00:00 -1.5 0 Calma 4 Nordeste 0 -- -- 92
2019-02-21 02:00:00 -1.1 2 Este 9 Este 0 -- -- 91
2019-02-21 01:00:00 -0.4 0 Calma 8 Este 0 -- -- 88
2019-02-21 00:00:00 0.6 0 Calma 8 Este 0 -- -- 85
2019-02-20 23:00:00 2.2 6 Este 8 Este 0 -- -- 86
2019-02-20 22:00:00 1.4 4 Este 5 Este 0 -- -- 83
2019-02-20 21:00:00 3.6 3 Este 6 Sudeste 0 -- -- 78
2019-02-20 20:00:00 6.8 2 Sur 5 Sudeste 0 -- -- 65
2019-02-20 19:00:00 10.2 0 Calma 14 Oeste 0 -- -- 55
2019-02-20 18:00:00 12.7 9 Oeste 17 Sudoeste 0 -- -- 51
2019-02-20 17:00:00 13.4 6 Oeste 21 Oeste 0 -- -- 49
2019-02-20 16:00:00 13.2 10 Noroeste 19 Oeste 0 -- -- 54
2019-02-20 15:00:00 12.6 6 Sudoeste 15 Oeste 0 -- -- 56
2019-02-20 14:00:00 10.5 6 Oeste 16 Oeste 0 -- -- 67
2019-02-20 13:00:00 10.9 10 Noroeste 18 Oeste 0 -- -- 70
2019-02-20 12:00:00 8.4 3 Sudoeste 6 Noroeste 0 -- -- 83
2019-02-20 11:00:00 4.8 2 Sudoeste 5 Sudoeste 0 -- -- 95
2019-02-20 10:00:00 2.1 0 Calma 8 Sudoeste 0 -- -- 96
2019-02-20 09:00:00 0.5 4 Oeste 8 Oeste 0 -- -- 96
2019-02-20 08:00:00 -0.4 0 Calma 5 Sudoeste 0 -- -- 96
2019-02-20 07:00:00 -1.9 0 Calma 2 Sudeste 0 -- -- 95
2019-02-20 06:00:00 -1.5 0 Calma 2 Sudoeste 0 -- -- 94
2019-02-20 05:00:00 -1.4 0 Calma 2 Norte 0 -- -- 93
2019-02-20 04:00:00 -0.9 0 Calma 2 Este 0 -- -- 93
2019-02-20 03:00:00 0.1 0 Calma 4 Este 0 -- -- 91
2019-02-20 02:00:00 1 3 Este 8 Este 0 -- -- 92
2019-02-20 01:00:00 1.5 4 Este 6 Este 0 -- -- 92
2019-02-20 00:00:00 1.8 4 Nordeste 15 Oeste 0 -- -- 92
2019-02-19 23:00:00 2.7 2 Sudeste 6 Este 0 -- -- 91
2019-02-19 22:00:00 3.1 0 Calma 6 Este 0 -- -- 86
2019-02-19 21:00:00 4.2 4 Este 6 Este 0 -- -- 85
2019-02-19 20:00:00 7 0 Calma 4 Sudoeste 0 -- -- 74
2019-02-19 19:00:00 10.5 0 Calma 9 Oeste 0 -- -- 66
2019-02-19 18:00:00 12.1 5 Sudoeste 11 Oeste 0 -- -- 60
2019-02-19 17:00:00 11.8 7 Sudoeste 19 Sudoeste 0 -- -- 62
2019-02-19 16:00:00 11.8 9 Sudoeste 21 Sudoeste 0 -- -- 62
2019-02-19 15:00:00 11.8 4 Sudoeste 9 Oeste 0 -- -- 65
2019-02-19 14:00:00 11.3 2 Noroeste 13 Sur 0 -- -- 71
2019-02-19 13:00:00 9.8 4 Este 10 Sudeste 0 -- -- 75
2019-02-19 12:00:00 8.8 2 Este 6 Sudeste 0 -- -- 76
2019-02-19 11:00:00 6.7 2 Este 6 Nordeste 0 -- -- 84
2019-02-19 10:00:00 5.5 2 Nordeste 6 Este 0.2 -- -- 94
2019-02-19 09:00:00 4.2 0 Calma 4 Sudoeste 0.4 -- -- 92
2019-02-19 08:00:00 4.4 3 Sudeste 15 Este 0.6 -- -- 91
2019-02-19 07:00:00 4.7 4 Sudeste 8 Este 0.6 -- -- 89
2019-02-19 06:00:00 4.6 3 Este 6 Este 0 -- -- 87
2019-02-19 05:00:00 4.3 0 Calma 7 Sudeste 0 -- -- 87
2019-02-19 04:00:00 4 3 Sudoeste 6 Noroeste 0 -- -- 88
2019-02-19 03:00:00 3.4 0 Calma 5 Noroeste 0 -- -- 85
2019-02-19 02:00:00 3.4 2 Oeste 3 Oeste 0 -- -- 83
2019-02-19 01:00:00 3.5 0 Calma 6 Norte 0 -- -- 82
2019-02-19 00:00:00 4.8 3 Sudeste 7 Sudeste 0 -- -- 79
2019-02-18 23:00:00 4.7 3 Norte 21 Nordeste 0 -- -- 81
2019-02-18 22:00:00 4.8 12 Nordeste 19 Nordeste 0 -- -- 81
2019-02-18 21:00:00 4.3 4 Nordeste 8 Nordeste 0 -- -- 72
2019-02-18 20:00:00 7.7 2 Este 4 Noroeste 0 -- -- 63
2019-02-18 19:00:00 10.5 3 Noroeste 14 Noroeste 0 -- -- 55
2019-02-18 18:00:00 13.1 10 Noroeste 20 Noroeste 0 -- -- 50
2019-02-18 17:00:00 13.8 11 Noroeste 22 Oeste 0 -- -- 45
2019-02-18 16:00:00 14.6 10 Oeste 26 Sudoeste 0 -- -- 40
2019-02-18 15:00:00 15.5 14 Oeste 30 Sudoeste 0 -- -- 38
2019-02-18 14:00:00 14.6 14 Sudoeste 24 Sudoeste 0 -- -- 39
2019-02-18 13:00:00 13.1 8 Sur 16 Sudeste 0 -- -- 45
2019-02-18 12:00:00 10.1 8 Sudeste 22 Sudeste 0 -- -- 54
2019-02-18 11:00:00 9.5 9 Sudeste 17 Sudeste 0 -- -- 54
2019-02-18 10:00:00 5.1 6 Nordeste 10 Nordeste 0 -- -- 67
2019-02-18 09:00:00 3.3 4 Sudeste 8 Sudeste 0 -- -- 65
2019-02-18 08:00:00 2.5 2 Sur 8 Este 0 -- -- 65
2019-02-18 07:00:00 2.6 2 Este 8 Este 0 -- -- 62
2019-02-18 06:00:00 2.1 0 Calma 9 Sur 0 -- -- 70
2019-02-18 05:00:00 2.7 3 Sudoeste 9 Sudoeste 0 -- -- 70
2019-02-18 04:00:00 2.4 5 Este 9 Nordeste 0 -- -- 71
2019-02-18 03:00:00 2 4 Este 9 Nordeste 0 -- -- 74
2019-02-18 02:00:00 1.6 0 Calma 9 Oeste 0 -- -- 67
2019-02-18 01:00:00 3.6 5 Oeste 10 Sudoeste 0 -- -- 61
2019-02-18 00:00:00 4.6 0 Calma 10 Sudeste 0 -- -- 54
2019-02-17 23:00:00 6.1 4 Sur 10 Sudeste 0 -- -- 48
2019-02-17 22:00:00 4.2 3 Nordeste 8 Sur 0 -- -- 52
2019-02-17 21:00:00 4.5 0 Calma 7 Sur 0 -- -- 51
2019-02-17 20:00:00 6.9 3 Sudoeste 8 Sudoeste 0 -- -- 45
2019-02-17 19:00:00 12.2 5 Sudoeste 16 Sudoeste 0 -- -- 32
2019-02-17 18:00:00 16 10 Sudoeste 20 Sudoeste 0 -- -- 24
2019-02-17 17:00:00 16.8 7 Sur 17 Sur 0 -- -- 21
2019-02-17 16:00:00 16.3 9 Sur 16 Sur 0 -- -- 21
2019-02-17 15:00:00 16.4 8 Sur 18 Sur 0 -- -- 22
2019-02-17 14:00:00 15.6 7 Sudoeste 13 Sudoeste 0 -- -- 26
2019-02-17 13:00:00 14.3 6 Sudeste 15 Sudeste 0 -- -- 29
2019-02-17 12:00:00 12.2 9 Sudeste 17 Sudeste 0 -- -- 31
2019-02-17 11:00:00 8.6 2 Sudeste 7 Sudeste 0 -- -- 41
2019-02-17 10:00:00 4.2 4 Sudoeste 8 Sur 0 -- -- 69
2019-02-17 09:00:00 3.3 3 Sudoeste 12 Sudeste 0 -- -- 51
2019-02-17 08:00:00 2.9 3 Oeste 13 Sudoeste 0 -- -- 54
2019-02-17 07:00:00 3.5 3 Sudoeste 19 Sur 0 -- -- 54
2019-02-17 06:00:00 3.3 2 Sudoeste 8 Noroeste 0 -- -- 54
2019-02-17 05:00:00 3.3 0 Calma 11 Oeste 0 -- -- 57
2019-02-17 04:00:00 4.3 3 Noroeste 10 Sur 0 -- -- 57
2019-02-17 03:00:00 4.4 0 Calma 6 Nordeste 0 -- -- 56
2019-02-17 02:00:00 5.3 3 Este 10 Este 0 -- -- 52
2019-02-17 01:00:00 5.8 3 Oeste 18 Sudoeste 0 -- -- 51
2019-02-17 00:00:00 6.7 3 Sudoeste 10 Sudoeste 0 -- -- 47
2019-02-16 23:00:00 7.1 2 Norte 9 Sudoeste 0 -- -- 46
2019-02-16 22:00:00 7 3 Oeste 15 Este 0 -- -- 50
2019-02-16 21:00:00 6.5 2 Este 13 Este 0 -- -- 57
2019-02-16 20:00:00 7.1 5 Este 8 Este 0 -- -- 63
2019-02-16 19:00:00 12.9 0 Calma 9 Noroeste 0 -- -- 48
2019-02-16 18:00:00 16.9 5 Oeste 13 Oeste 0 -- -- 38
2019-02-16 17:00:00 17.3 7 Sudoeste 18 Sudoeste 0 -- -- 37
2019-02-16 16:00:00 17.6 6 Sur 21 Sudoeste 0 -- -- 36
2019-02-16 15:00:00 17.2 9 Sur 20 Sur 0 -- -- 36
2019-02-16 14:00:00 16 5 Sudoeste 20 Sudoeste 0 -- -- 45
2019-02-16 13:00:00 13.6 9 Sur 23 Sur 0 -- -- 49
2019-02-16 12:00:00 11.2 2 Oeste 6 Nordeste 0 -- -- 58
2019-02-16 11:00:00 7.8 2 Sur 7 Sudeste 0 -- -- 67
2019-02-16 10:00:00 2.4 0 Calma 4 Este 0 -- -- 86
2019-02-16 09:00:00 -2.9 2 Este 3 Este 0 -- -- 90
2019-02-16 08:00:00 -2.2 0 Calma 8 Nordeste 0 -- -- 87
2019-02-16 07:00:00 -0.4 5 Nordeste 11 Nordeste 0 -- -- 83
2019-02-16 06:00:00 1.1 4 Este 14 Nordeste 0 -- -- 84
2019-02-16 05:00:00 0.9 7 Nordeste 12 Este 0 -- -- 84
2019-02-16 04:00:00 -0.5 4 Este 9 Este 0 -- -- 89
2019-02-16 03:00:00 -0.4 2 Este 6 Este 0 -- -- 84
2019-02-16 02:00:00 1.6 3 Nordeste 14 Nordeste 0 -- -- 85
2019-02-16 01:00:00 2.3 9 Este 14 Nordeste 0 -- -- 82
2019-02-16 00:00:00 3.1 6 Este 14 Nordeste 0 -- -- 80
2019-02-15 23:00:00 3.7 10 Nordeste 14 Nordeste 0 -- -- 77
2019-02-15 22:00:00 4.1 9 Nordeste 15 Nordeste 0 -- -- 78
2019-02-15 21:00:00 5.4 10 Nordeste 16 Nordeste 0 -- -- 74
2019-02-15 20:00:00 6.5 4 Este 7 Nordeste 0 -- -- 58
2019-02-15 19:00:00 10.4 2 Este 6 Este 0 -- -- 46
2019-02-15 18:00:00 15.7 3 Nordeste 9 Norte 0 -- -- 34
2019-02-15 17:00:00 17 3 Noroeste 10 Norte 0 -- -- 32
2019-02-15 16:00:00 16.4 4 Noroeste 11 Noroeste 0 -- -- 33
2019-02-15 15:00:00 15.8 4 Sudoeste 10 Oeste 0 -- -- 33
2019-02-15 14:00:00 13.6 4 Noroeste 9 Noroeste 0 -- -- 43
2019-02-15 13:00:00 12.6 2 Sudeste 6 Este 0 -- -- 49
2019-02-15 12:00:00 9.3 0 Calma 5 Sudoeste 0 -- -- 58
2019-02-15 11:00:00 5.4 0 Calma 5 Este 0 -- -- 72
2019-02-15 10:00:00 0.7 0 Calma 3 Este 0 -- -- 86
2019-02-15 09:00:00 -3.4 2 Nordeste 10 Nordeste 0 -- -- 93
2019-02-15 08:00:00 -4.6 0 Calma 3 Este 0 -- -- 92
2019-02-15 07:00:00 -3.2 2 Sudoeste 5 Sudoeste 0 -- -- 93
2019-02-15 06:00:00 -3.8 0 Calma 5 Nordeste 0 -- -- 92
2019-02-15 05:00:00 -4 2 Nordeste 5 Nordeste 0 -- -- 90
2019-02-15 04:00:00 -3.3 0 Calma 2 Norte 0 -- -- 90
2019-02-15 03:00:00 -2.6 0 Calma 4 Este 0 -- -- 89
2019-02-15 02:00:00 -1.7 4 Nordeste 6 Este 0 -- -- 90
2019-02-15 01:00:00 -0.9 0 Calma 3 Este 0 -- -- 88
2019-02-15 00:00:00 0.1 2 Este 6 Sudeste 0 -- -- 83
2019-02-14 23:00:00 3.1 0 Calma 17 Nordeste 0 -- -- 77
2019-02-14 22:00:00 3.7 9 Nordeste 15 Nordeste 0 -- -- 80
2019-02-14 21:00:00 4.5 10 Nordeste 18 Nordeste 0 -- -- 77
2019-02-14 20:00:00 6.6 9 Nordeste 15 Nordeste 0 -- -- 70
2019-02-14 19:00:00 11.4 7 Este 12 Nordeste 0 -- -- 52
2019-02-14 18:00:00 17.7 5 Noroeste 13 Noroeste 0 -- -- 31
2019-02-14 17:00:00 18.6 4 Noroeste 14 Sur 0 -- -- 24
2019-02-14 16:00:00 18.5 4 Sur 15 Sudoeste 0 -- -- 20
2019-02-14 15:00:00 17.6 5 Sudoeste 14 Sudeste 0 -- -- 24
2019-02-14 14:00:00 16.1 5 Sudeste 13 Sur 0 -- -- 32
2019-02-14 13:00:00 13 2 Nordeste 7 Nordeste 0 -- -- 44
2019-02-14 12:00:00 9.5 3 Sudeste 6 Sudeste 0 -- -- 63
2019-02-14 11:00:00 5.2 3 Norte 9 Este 0 -- -- 76
2019-02-14 10:00:00 0.4 4 Este 6 Este 0 -- -- 93
2019-02-14 09:00:00 -4.7 0 Calma 2 Este 0 -- -- 92
2019-02-14 08:00:00 -4.1 0 Calma 3 Este 0 -- -- 91
2019-02-14 07:00:00 -3.4 2 Este 3 Oeste 0 -- -- 92
2019-02-14 06:00:00 -3 0 Calma 3 Oeste 0 -- -- 90
2019-02-14 05:00:00 -1.6 0 Calma 5 Nordeste 0 -- -- 89
2019-02-14 04:00:00 -1 4 Este 6 Este 0 -- -- 90
2019-02-14 03:00:00 -0.5 0 Calma 8 Este 0 -- -- 86
2019-02-14 02:00:00 -0.2 2 Este 5 Este 0 -- -- 85
2019-02-14 01:00:00 1.9 5 Nordeste 12 Nordeste 0 -- -- 84
2019-02-14 00:00:00 2.3 9 Este 13 Nordeste 0 -- -- 81
2019-02-13 23:00:00 2.5 6 Nordeste 11 Este 0 -- -- 78
2019-02-13 22:00:00 2.8 6 Este 12 Nordeste 0 -- -- 71
2019-02-13 21:00:00 4 5 Este 9 Este 0 -- -- 69
2019-02-13 20:00:00 5.8 5 Este 7 Este 0 -- -- 63
2019-02-13 19:00:00 11.2 0 Calma 6 Noroeste 0 -- -- 47
2019-02-13 18:00:00 14.8 6 Noroeste 13 Oeste 0 -- -- 40
2019-02-13 17:00:00 15.5 4 Oeste 13 Oeste 0 -- -- 38
2019-02-13 16:00:00 15.3 5 Oeste 12 Oeste 0 -- -- 39
2019-02-13 15:00:00 14 3 Oeste 13 Oeste 0 -- -- 43
2019-02-13 14:00:00 12.8 4 Noroeste 11 Noroeste 0 -- -- 48
2019-02-13 13:00:00 10.6 6 Sudoeste 14 Oeste 0 -- -- 50
2019-02-13 12:00:00 7.6 0 Calma 4 Sudoeste 0 -- -- 63
2019-02-13 11:00:00 3.8 0 Calma 3 Sur 0 -- -- 73
2019-02-13 10:00:00 -0.4 0 Calma 0 Calma 0 -- -- 88
2019-02-13 09:00:00 -4.8 0 Calma 2 Nordeste 0 -- -- 92
2019-02-13 08:00:00 -4.4 0 Calma 5 Sudoeste 0 -- -- 91
2019-02-13 07:00:00 -4.9 0 Calma 2 Sudoeste 0 -- -- 91
2019-02-13 06:00:00 -4.4 0 Calma 4 Este 0 -- -- 91
2019-02-13 05:00:00 -3.9 0 Calma 5 Este 0 -- -- 90
2019-02-13 04:00:00 -4.1 0 Calma 3 Este 0 -- -- 90
2019-02-13 03:00:00 -3.5 2 Este 4 Nordeste 0 -- -- 88
2019-02-13 02:00:00 -2.6 0 Calma 2 Noroeste 0 -- -- 86
2019-02-13 01:00:00 -1.7 0 Calma 2 Noroeste 0 -- -- 82
2019-02-13 00:00:00 0.2 0 Calma 3 Este 0 -- -- 75
2019-02-12 23:00:00 2.7 3 Este 9 Este 0 -- -- 65
2019-02-12 22:00:00 2.6 5 Este 10 Nordeste 0 -- -- 67
2019-02-12 21:00:00 4.2 6 Este 10 Nordeste 0 -- -- 63
2019-02-12 20:00:00 4.9 7 Nordeste 10 Nordeste 0 -- -- 61
2019-02-12 19:00:00 9.5 4 Este 5 Nordeste 0 -- -- 49
2019-02-12 18:00:00 13.6 0 Calma 6 Este 0 -- -- 37
2019-02-12 17:00:00 13.7 4 Este 13 Nordeste 0 -- -- 37
2019-02-12 16:00:00 13.3 5 Norte 14 Nordeste 0 -- -- 38
2019-02-12 15:00:00 12.4 5 Nordeste 15 Este 0 -- -- 44
2019-02-12 14:00:00 11.3 8 Nordeste 18 Nordeste 0 -- -- 50
2019-02-12 13:00:00 9.6 10 Nordeste 19 Este 0 -- -- 58
2019-02-12 12:00:00 7.2 8 Nordeste 15 Nordeste 0 -- -- 70
2019-02-12 11:00:00 4.2 3 Nordeste 9 Nordeste 0 -- -- 80
2019-02-12 10:00:00 0.2 5 Nordeste 7 Nordeste 0 -- -- 93
2019-02-12 09:00:00 -2.9 0 Calma 5 Sur 0 -- -- 93
2019-02-12 08:00:00 -2 4 Este 10 Nordeste 0 -- -- 94
2019-02-12 07:00:00 -3.1 5 Nordeste 9 Este 0 -- -- 93
2019-02-12 06:00:00 -1.7 3 Sudeste 8 Noroeste 0 -- -- 93
2019-02-12 05:00:00 -2.5 4 Este 7 Nordeste 0 -- -- 92
2019-02-12 04:00:00 -1.7 2 Nordeste 8 Nordeste 0 -- -- 92
2019-02-12 03:00:00 -0.6 0 Calma 6 Noroeste 0 -- -- 88
2019-02-12 02:00:00 0.6 0 Calma 15 Este 0 -- -- 89
2019-02-12 01:00:00 1.1 11 Este 16 Este 0 -- -- 88
2019-02-12 00:00:00 1.1 9 Este 14 Este 0 -- -- 87
2019-02-11 23:00:00 1.2 7 Nordeste 23 Este 0 -- -- 85
2019-02-11 22:00:00 2.6 12 Este 29 Este 0 -- -- 82
2019-02-11 21:00:00 2.8 10 Este 18 Este 0 -- -- 81
2019-02-11 20:00:00 3.4 9 Este 23 Nordeste 0 -- -- 76
2019-02-11 19:00:00 5.2 12 Nordeste 28 Nordeste 0 -- -- 67
2019-02-11 18:00:00 8.3 18 Nordeste 27 Nordeste 0 -- -- 59
2019-02-11 17:00:00 9.8 13 Nordeste 23 Este 0 -- -- 52
2019-02-11 16:00:00 9.5 9 Nordeste 22 Norte 0 -- -- 54
2019-02-11 15:00:00 8.9 9 Norte 23 Norte 0 -- -- 57
2019-02-11 14:00:00 7.6 9 Este 24 Nordeste 0 -- -- 62
2019-02-11 13:00:00 7 9 Nordeste 15 Nordeste 0 -- -- 64
2019-02-11 12:00:00 6.4 2 Este 9 Este 0 -- -- 73
2019-02-11 11:00:00 3.9 2 Sudeste 8 Nordeste 0 -- -- 83
2019-02-11 10:00:00 0.2 4 Este 8 Este 0 -- -- 94
2019-02-11 09:00:00 -3.8 3 Este 8 Este 0 -- -- 94
2019-02-11 08:00:00 -3.1 0 Calma 3 Sudoeste 0 -- -- 92
2019-02-11 07:00:00 -2.2 0 Calma 4 Este 0 -- -- 92
2019-02-11 06:00:00 -1.4 2 Este 5 Nordeste 0 -- -- 93
2019-02-11 05:00:00 -1.4 3 Este 5 Nordeste 0 -- -- 92
2019-02-11 04:00:00 -0.8 3 Nordeste 6 Nordeste 0 -- -- 91
2019-02-11 03:00:00 0.8 0 Calma 3 Este 0 -- -- 89
2019-02-11 02:00:00 2.5 0 Calma 4 Nordeste 0 -- -- 90
2019-02-11 01:00:00 2.5 2 Oeste 8 Oeste 0 -- -- 90
2019-02-11 00:00:00 2.6 6 Este 14 Este 0 -- -- 90
2019-02-10 23:00:00 2.1 5 Nordeste 17 Este 0 -- -- 89
2019-02-10 22:00:00 3.4 9 Este 21 Este 0 -- -- 89
2019-02-10 21:00:00 4.2 9 Nordeste 27 Nordeste 0 -- -- 88
2019-02-10 20:00:00 6.2 17 Nordeste 25 Nordeste 0 -- -- 84
2019-02-10 19:00:00 9.7 11 Oeste 26 Oeste 0 -- -- 61
2019-02-10 18:00:00 11.3 15 Oeste 26 Oeste 0 -- -- 69
2019-02-10 17:00:00 11.8 17 Oeste 40 Oeste 0 -- -- 81
2019-02-10 16:00:00 11.9 22 Sudoeste 40 Sudoeste 0 -- -- 81
2019-02-10 15:00:00 10.1 25 Oeste 50 Sudoeste 0 -- -- 89
2019-02-10 14:00:00 10.4 29 Oeste 53 Sudoeste 0 -- -- 84
2019-02-10 13:00:00 10 32 Sudoeste 53 Oeste 0 -- -- 85
2019-02-10 12:00:00 10.1 33 Sudoeste 55 Sudoeste 0 -- -- 79
2019-02-10 11:00:00 9.5 24 Sudoeste 57 Sudoeste 0 -- -- 79
2019-02-10 10:00:00 8.2 28 Sudoeste 49 Oeste 0 -- -- 83
2019-02-10 09:00:00 7.1 22 Sudoeste 40 Sudoeste 0 -- -- 84
2019-02-10 08:00:00 6.8 27 Sudoeste 46 Sudoeste 0 -- -- 85
2019-02-10 07:00:00 6.6 28 Sudoeste 46 Sudoeste 0 -- -- 83
2019-02-10 06:00:00 6.5 24 Sudoeste 38 Sudoeste 0 -- -- 82
2019-02-10 05:00:00 6.5 22 Sudoeste 36 Sudoeste 0 -- -- 81
2019-02-10 04:00:00 6.4 21 Sudoeste 35 Sudoeste 0 -- -- 80
2019-02-10 03:00:00 6.4 19 Sudoeste 37 Sudoeste 0 -- -- 81
2019-02-10 02:00:00 6.3 22 Sudoeste 37 Sudoeste 0 -- -- 81
2019-02-10 01:00:00 6.4 15 Sudoeste 26 Sudoeste 0 -- -- 77
2019-02-10 00:00:00 6 11 Sudoeste 21 Sudoeste 0 -- -- 74
2019-02-09 23:00:00 6 11 Sudoeste 28 Sudoeste 0 -- -- 75
2019-02-09 22:00:00 6.9 15 Sudoeste 30 Sudoeste 0 -- -- 74
2019-02-09 21:00:00 7.8 16 Sudoeste 26 Sudoeste 0 -- -- 71
2019-02-09 20:00:00 8.2 11 Sudoeste 20 Sudoeste 0 -- -- 70
2019-02-09 19:00:00 9 10 Sudoeste 21 Oeste 0 -- -- 65
2019-02-09 18:00:00 10.6 12 Oeste 24 Sudoeste 0 -- -- 59
2019-02-09 17:00:00 11.7 14 Sudoeste 30 Oeste 0 -- -- 56
2019-02-09 16:00:00 11.6 12 Sudoeste 26 Oeste 0 -- -- 57
2019-02-09 15:00:00 10.8 13 Sudoeste 23 Sudoeste 0 -- -- 61
2019-02-09 14:00:00 9.6 14 Sudoeste 22 Sudoeste 0 -- -- 66
2019-02-09 13:00:00 8.7 9 Oeste 17 Sudoeste 0 -- -- 73
2019-02-09 12:00:00 7.5 10 Sudoeste 18 Sudoeste 0 -- -- 79
2019-02-09 11:00:00 6.7 8 Sudoeste 15 Sudoeste 0 -- -- 84
2019-02-09 10:00:00 5.7 8 Sudoeste 15 Sudoeste 0 -- -- 88
2019-02-09 09:00:00 5.3 8 Sudoeste 12 Sudoeste 0 -- -- 89
2019-02-09 08:00:00 5 8 Sudoeste 14 Sudoeste 0 -- -- 89
2019-02-09 07:00:00 5.1 2 Oeste 11 Sudoeste 0 -- -- 88
2019-02-09 06:00:00 5.1 7 Sudoeste 14 Sudoeste 0 -- -- 88
2019-02-09 05:00:00 5.1 5 Sudoeste 15 Sudoeste 0 -- -- 87
2019-02-09 04:00:00 4.8 6 Sudoeste 20 Oeste 0 -- -- 87
2019-02-09 03:00:00 5.4 12 Sudoeste 22 Sudoeste 0 -- -- 86
2019-02-09 02:00:00 4.9 10 Sudoeste 25 Sudoeste 0 -- -- 85
2019-02-09 01:00:00 5.2 13 Sudoeste 24 Sudoeste 0 -- -- 84
2019-02-09 00:00:00 5.5 14 Sudoeste 26 Oeste 0 -- -- 83
2019-02-08 23:00:00 5.8 17 Sudoeste 31 Sudoeste 0 -- -- 81
2019-02-08 22:00:00 5.9 19 Sudoeste 33 Sudoeste 0 -- -- 79
2019-02-08 21:00:00 6 10 Sudoeste 17 Sudoeste 0 -- -- 78
2019-02-08 20:00:00 6.1 5 Sudoeste 17 Sudoeste 0 -- -- 77
2019-02-08 19:00:00 7.3 6 Oeste 22 Oeste 0 -- -- 73
2019-02-08 18:00:00 9.4 11 Oeste 27 Sudoeste 0 -- -- 65
2019-02-08 17:00:00 11.1 18 Oeste 31 Oeste 0 -- -- 60
2019-02-08 16:00:00 11.6 16 Oeste 28 Noroeste 0 -- -- 65
2019-02-08 15:00:00 10.8 14 Oeste 29 Sudoeste 0 -- -- 68
2019-02-08 14:00:00 9.7 16 Sudoeste 30 Oeste 0 -- -- 68
2019-02-08 13:00:00 8.1 13 Sudoeste 26 Sudoeste 0 -- -- 77
2019-02-08 12:00:00 7.2 13 Sudoeste 20 Sudoeste 0 -- -- 79
2019-02-08 11:00:00 4.9 2 Norte 5 Sur 0 -- -- 94
2019-02-08 10:00:00 1.4 2 Noroeste 8 Sudoeste 0 -- -- 96
2019-02-08 09:00:00 -1.6 0 Calma 7 Sur 0 -- -- 95
2019-02-08 08:00:00 -1.4 2 Oeste 5 Oeste 0 -- -- 95
2019-02-08 07:00:00 -2.7 0 Calma 4 Sudoeste 0 -- -- 95
2019-02-08 06:00:00 -2.4 0 Calma 3 Nordeste 0 -- -- 94
2019-02-08 05:00:00 -1.7 0 Calma 3 Oeste 0 -- -- 94
2019-02-08 04:00:00 -1.8 0 Calma 2 Oeste 0 -- -- 94
2019-02-08 03:00:00 -2 2 Este 4 Este 0 -- -- 92
2019-02-08 02:00:00 -1.8 2 Este 5 Este 0 -- -- 91
2019-02-08 01:00:00 -1.3 2 Este 6 Noroeste 0 -- -- 92
2019-02-08 00:00:00 -0.9 0 Calma 3 Nordeste 0 -- -- 90
2019-02-07 23:00:00 -0.2 0 Calma 2 Nordeste 0 -- -- 88
2019-02-07 22:00:00 0.9 0 Calma 3 Nordeste 0 -- -- 85
2019-02-07 21:00:00 3.1 0 Calma 4 Nordeste 0 -- -- 80
2019-02-07 20:00:00 5 0 Calma 6 Sudoeste 0 -- -- 73
2019-02-07 19:00:00 9.3 3 Sudoeste 13 Oeste 0 -- -- 60
2019-02-07 18:00:00 12.2 8 Oeste 14 Oeste 0 -- -- 53
2019-02-07 17:00:00 12.6 8 Oeste 20 Oeste 0 -- -- 54
2019-02-07 16:00:00 13.2 8 Oeste 19 Noroeste 0 -- -- 52
2019-02-07 15:00:00 12.1 10 Oeste 23 Oeste 0 -- -- 60
2019-02-07 14:00:00 11.3 10 Oeste 22 Oeste 0 -- -- 64
2019-02-07 13:00:00 9.8 7 Oeste 18 Oeste 0 -- -- 67
2019-02-07 12:00:00 8.8 11 Oeste 17 Oeste 0 -- -- 70
2019-02-07 11:00:00 6.7 6 Sudoeste 13 Sudoeste 0 -- -- 70
2019-02-07 10:00:00 3.9 7 Sudoeste 11 Oeste 0 -- -- 78
2019-02-07 09:00:00 0.7 2 Sudoeste 10 Sudoeste 0 -- -- 85
2019-02-07 08:00:00 0.5 0 Calma 4 Sudoeste 0 -- -- 84
2019-02-07 07:00:00 2.6 0 Calma 9 Sudoeste 0 -- -- 76
2019-02-07 06:00:00 4.3 5 Sudoeste 10 Sudoeste 0 -- -- 71
2019-02-07 05:00:00 3.4 5 Sudoeste 10 Sudoeste 0 -- -- 76
2019-02-07 04:00:00 3.5 5 Oeste 10 Sudoeste 0 -- -- 77
2019-02-07 03:00:00 5.2 4 Sudoeste 14 Sudoeste 0 -- -- 70
2019-02-07 02:00:00 6.8 10 Sudoeste 21 Sudoeste 0 -- -- 64
2019-02-07 01:00:00 7.6 13 Sudoeste 20 Sudoeste 0 -- -- 61
2019-02-07 00:00:00 7.6 13 Sudoeste 20 Sudoeste 0 -- -- 64
2019-02-06 23:00:00 4.4 8 Sudoeste 14 Sudoeste 0 -- -- 82
2019-02-06 22:00:00 3.3 0 Calma 3 Noroeste 0 -- -- 86
2019-02-06 21:00:00 4.5 0 Calma 4 Sudoeste 0 -- -- 80
2019-02-06 20:00:00 7.5 3 Sudoeste 10 Sudoeste 0 -- -- 74
2019-02-06 19:00:00 9.8 6 Sudoeste 17 Oeste 0 -- -- 67
2019-02-06 18:00:00 12.8 13 Oeste 23 Sudoeste 0 -- -- 56
2019-02-06 17:00:00 14 14 Oeste 30 Oeste 0 -- -- 55
2019-02-06 16:00:00 14 14 Oeste 28 Sudoeste 0 -- -- 57
2019-02-06 15:00:00 13.7 14 Sudoeste 28 Sudoeste 0 -- -- 57
2019-02-06 14:00:00 12.7 10 Oeste 18 Sudoeste 0 -- -- 61
2019-02-06 13:00:00 10.5 6 Sudoeste 12 Oeste 0 -- -- 73
2019-02-06 12:00:00 6.1 2 Sudoeste 6 Sudoeste 0 -- -- 86
2019-02-06 11:00:00 2.4 0 Calma 4 Sudoeste 0 -- -- 97
2019-02-06 10:00:00 -1 0 Calma 2 Nordeste 0 -- -- 98
2019-02-06 09:00:00 -3.2 0 Calma 0 Calma 0 -- -- 96
2019-02-06 08:00:00 -3.1 0 Calma 4 Sur 0 -- -- 95
2019-02-06 07:00:00 -2.7 3 Oeste 4 Oeste 0 -- -- 96
2019-02-06 06:00:00 -2.4 0 Calma 3 Este 0 -- -- 94
2019-02-06 05:00:00 -2.1 3 Nordeste 5 Nordeste 0 -- -- 94
2019-02-06 04:00:00 -1.5 2 Oeste 3 Oeste 0 -- -- 94
2019-02-06 03:00:00 -1.5 0 Calma 5 Este 0 -- -- 94
2019-02-06 02:00:00 -1.5 0 Calma 2 Este 0 -- -- 93
2019-02-06 01:00:00 -0.8 2 Nordeste 4 Este 0 -- -- 93
2019-02-06 00:00:00 -0.2 3 Este 5 Este 0 -- -- 91
2019-02-05 23:00:00 0.7 2 Este 7 Este 0 -- -- 91
2019-02-05 22:00:00 1 4 Este 6 Este 0 -- -- 89
2019-02-05 21:00:00 2.7 0 Calma 5 Este 0 -- -- 84
2019-02-05 20:00:00 5 0 Calma 4 Sudeste 0 -- -- 78
2019-02-05 19:00:00 8.7 5 Sudeste 8 Oeste 0 -- -- 69
2019-02-05 18:00:00 12.7 6 Oeste 10 Oeste 0 -- -- 57
2019-02-05 17:00:00 13.1 4 Oeste 11 Oeste 0 -- -- 57
2019-02-05 16:00:00 12.8 3 Oeste 12 Oeste 0 -- -- 56
2019-02-05 15:00:00 11.9 3 Sur 12 Noroeste 0 -- -- 59
2019-02-05 14:00:00 10.2 7 Noroeste 12 Noroeste 0 -- -- 62
2019-02-05 13:00:00 8.7 4 Noroeste 8 Oeste 0 -- -- 62
2019-02-05 12:00:00 6.5 4 Sudoeste 6 Sur 0 -- -- 70
2019-02-05 11:00:00 3.6 0 Calma 3 Sudoeste 0 -- -- 80
2019-02-05 10:00:00 -0.1 0 Calma 4 Nordeste 0 -- -- 96
2019-02-05 09:00:00 -3.8 0 Calma 2 Nordeste 0 -- -- 94
2019-02-05 08:00:00 -3.7 0 Calma 3 Este 0 -- -- 93
2019-02-05 07:00:00 -3.1 0 Calma 4 Este 0 -- -- 93
2019-02-05 06:00:00 -2.7 0 Calma 0 Calma 0 -- -- 93
2019-02-05 05:00:00 -2.5 0 Calma 3 Oeste 0 -- -- 93
2019-02-05 04:00:00 -1.7 2 Sudoeste 3 Oeste 0 -- -- 92
2019-02-05 03:00:00 -1.4 0 Calma 3 Nordeste 0 -- -- 92
2019-02-05 02:00:00 -1.3 0 Calma 4 Este 0 -- -- 92
2019-02-05 01:00:00 -0.9 0 Calma 0 Calma 0 -- -- 91
2019-02-05 00:00:00 -0.8 0 Calma 5 Este 0 -- -- 89
2019-02-04 23:00:00 0.5 0 Calma 6 Este 0 -- -- 88
2019-02-04 22:00:00 0.5 0 Calma 3 Sudeste 0 -- -- 86
2019-02-04 21:00:00 1.6 0 Calma 5 Oeste 0 -- -- 82
2019-02-04 20:00:00 3.6 4 Sur 6 Norte 0 -- -- 77
2019-02-04 19:00:00 4.9 3 Oeste 8 Sur 0 -- -- 71
2019-02-04 18:00:00 7.1 5 Oeste 16 Oeste 0 -- -- 61
2019-02-04 17:00:00 7.6 11 Oeste 18 Noroeste 0 -- -- 57
2019-02-04 16:00:00 7.8 9 Oeste 23 Oeste 0 -- -- 57
2019-02-04 15:00:00 7.7 13 Oeste 22 Oeste 0 -- -- 56
2019-02-04 14:00:00 6.3 9 Sudoeste 16 Sudoeste 0 -- -- 60
2019-02-04 13:00:00 4.3 4 Oeste 15 Sudoeste 0 -- -- 72
2019-02-04 12:00:00 2.8 5 Sudoeste 10 Oeste 0 -- -- 78
2019-02-04 11:00:00 0.1 0 Calma 4 Oeste 0 -- -- 89
2019-02-04 10:00:00 -2 0 Calma 5 Este 0 -- -- 95
2019-02-04 09:00:00 -5.7 3 Este 5 Este 0 -- -- 94
2019-02-04 08:00:00 -5.9 0 Calma 4 Este 0 -- -- 93
2019-02-04 07:00:00 -5.7 0 Calma 3 Este 0 -- -- 92
2019-02-04 06:00:00 -5.5 0 Calma 5 Este 0 -- -- 94
2019-02-04 05:00:00 -5.2 2 Nordeste 4 Nordeste 0 -- -- 92
2019-02-04 04:00:00 -4.3 0 Calma 3 Sur 0 -- -- 92
2019-02-04 03:00:00 -4.4 2 Nordeste 4 Nordeste 0 -- -- 92
2019-02-04 02:00:00 -3.6 2 Oeste 5 Sur 0 -- -- 92
2019-02-04 01:00:00 -3.9 2 Nordeste 4 Sudoeste 0 -- -- 91
2019-02-04 00:00:00 -2.5 2 Sudoeste 8 Nordeste 0 -- -- 90
2019-02-03 23:00:00 -2.3 3 Este 5 Nordeste 0 -- -- 89
2019-02-03 22:00:00 -2 0 Calma 8 Nordeste 0 -- -- 90
2019-02-03 21:00:00 -1.7 4 Nordeste 6 Nordeste 0 -- -- 87
2019-02-03 20:00:00 -0.6 2 Este 11 Nordeste 0 -- -- 83
2019-02-03 19:00:00 0.7 8 Nordeste 18 Nordeste 0 -- -- 78
2019-02-03 18:00:00 3.5 16 Nordeste 28 Nordeste 0 -- -- 68
2019-02-03 17:00:00 4.8 16 Nordeste 25 Nordeste 0 -- -- 58
2019-02-03 16:00:00 5.1 16 Nordeste 29 Nordeste 0 -- -- 67
2019-02-03 15:00:00 4.8 17 Nordeste 30 Nordeste 0 -- -- 64
2019-02-03 14:00:00 4.8 14 Norte 24 Norte 0 -- -- 62
2019-02-03 13:00:00 3.8 12 Norte 23 Nordeste 0 -- -- 68
2019-02-03 12:00:00 2.6 4 Noroeste 9 Oeste 0 -- -- 72
2019-02-03 11:00:00 0.6 4 Sudoeste 9 Sudoeste 0 -- -- 78
2019-02-03 10:00:00 -0.3 3 Sudoeste 6 Sudoeste 0 -- -- 81
2019-02-03 09:00:00 -1.5 4 Noroeste 13 Oeste 0 -- -- 88
2019-02-03 08:00:00 -1.4 3 Oeste 8 Oeste 0 -- -- 90
2019-02-03 07:00:00 -1.5 3 Oeste 7 Oeste 0 -- -- 90
2019-02-03 06:00:00 -1.2 0 Calma 6 Oeste 0 -- -- 88
2019-02-03 05:00:00 -1 0 Calma 6 Oeste 0 -- -- 89
2019-02-03 04:00:00 -1 2 Oeste 6 Sudoeste 0 -- -- 88
2019-02-03 03:00:00 -1 0 Calma 5 Este 0 -- -- 86
2019-02-03 02:00:00 -0.2 3 Sudeste 17 Norte 0 -- -- 83
2019-02-03 01:00:00 0.2 12 Norte 40 Norte 0 -- -- 78
2019-02-03 00:00:00 0.3 23 Norte 37 Norte 0 -- -- 78
2019-02-02 23:00:00 0.6 15 Norte 25 Norte 0 -- -- 78
2019-02-02 22:00:00 -0.2 6 Norte 17 Norte 0 -- -- 85
2019-02-02 21:00:00 0.2 3 Noroeste 6 Oeste 0 -- -- 85
2019-02-02 20:00:00 0.5 4 Oeste 6 Oeste 0 -- -- 81
2019-02-02 19:00:00 1.2 0 Calma 14 Nordeste 0 -- -- 78
2019-02-02 18:00:00 2.5 12 Nordeste 25 Norte 0 -- -- 71
2019-02-02 17:00:00 4 17 Norte 32 Norte 0 -- -- 56
2019-02-02 16:00:00 5.1 21 Norte 42 Noroeste 0 -- -- 60
2019-02-02 15:00:00 4.7 25 Noroeste 43 Noroeste 0 -- -- 65
2019-02-02 14:00:00 3.7 22 Norte 57 Noroeste 0.2 -- -- 74
2019-02-02 13:00:00 4.2 30 Norte 44 Norte 0 -- -- 66
2019-02-02 12:00:00 2.8 22 Norte 36 Noroeste 0 -- -- 77
2019-02-02 11:00:00 1.4 2 Noroeste 10 Oeste 0 -- -- 85
2019-02-02 10:00:00 0.3 5 Oeste 16 Oeste 0 -- -- 85
2019-02-02 09:00:00 0.2 5 Oeste 15 Oeste 0 -- -- 84
2019-02-02 08:00:00 0.7 7 Oeste 17 Oeste 0 -- -- 84
2019-02-02 07:00:00 0.6 6 Oeste 18 Oeste 0 -- -- 86
2019-02-02 06:00:00 0.5 8 Oeste 19 Oeste 0 -- -- 87
2019-02-02 05:00:00 0.4 7 Sudoeste 23 Oeste 0 -- -- 89
2019-02-02 04:00:00 0.6 13 Oeste 32 Oeste 0 -- -- 89
2019-02-02 03:00:00 0.8 19 Oeste 36 Oeste 0 -- -- 87
2019-02-02 02:00:00 0.9 18 Oeste 30 Oeste 0 -- -- 86
2019-02-02 01:00:00 1.7 18 Oeste 40 Oeste 0 -- -- 87
2019-02-02 00:00:00 1.7 21 Oeste 48 Oeste 0.2 -- -- 92
2019-02-01 23:00:00 1.6 31 Oeste 57 Oeste 0.6 -- -- 92
2019-02-01 22:00:00 2 23 Oeste 47 Oeste 0 -- -- 92
2019-02-01 21:00:00 2.4 22 Oeste 39 Oeste 0 -- -- 90
2019-02-01 20:00:00 1.9 23 Oeste 37 Oeste 0.2 -- -- 90
2019-02-01 19:00:00 1.5 18 Oeste 48 Oeste 0.4 -- -- 92
2019-02-01 18:00:00 3.1 29 Oeste 44 Oeste 0.2 -- -- 85
2019-02-01 17:00:00 4.2 25 Oeste 51 Oeste 0 -- -- 77
2019-02-01 16:00:00 5 32 Oeste 66 Oeste 0 -- -- 71
2019-02-01 15:00:00 4.9 40 Sudoeste 70 Sudoeste 0 -- -- 80
2019-02-01 14:00:00 4.2 37 Sudoeste 61 Sudoeste 1.2 -- -- 88
2019-02-01 13:00:00 5.3 35 Sudoeste 64 Sudoeste 0 -- -- 79
2019-02-01 12:00:00 5.3 39 Sudoeste 65 Sudoeste 0 -- -- 76
2019-02-01 11:00:00 4.5 29 Sudoeste 54 Sudoeste 0 -- -- 81
2019-02-01 10:00:00 4.4 30 Sudoeste 51 Sudoeste 0 -- -- 80
2019-02-01 09:00:00 3.9 29 Sudoeste 53 Oeste 0 -- -- 82
2019-02-01 08:00:00 3.6 24 Sudoeste 46 Sudoeste 0 -- -- 85
2019-02-01 07:00:00 4.1 23 Sudoeste 43 Sudoeste 0 -- -- 88
2019-02-01 06:00:00 4.6 26 Sudoeste 51 Sudoeste 0.6 -- -- 89
2019-02-01 05:00:00 5.2 21 Sudoeste 43 Sudoeste 0 -- -- 87
2019-02-01 04:00:00 5.1 22 Sudoeste 43 Sudoeste 0 -- -- 85
2019-02-01 03:00:00 5.3 22 Sudoeste 38 Sudoeste 0 -- -- 83
2019-02-01 02:00:00 6.2 21 Oeste 39 Oeste 0 -- -- 78
2019-02-01 01:00:00 7.6 21 Oeste 40 Sudoeste 0 -- -- 85
2019-02-01 00:00:00 8.5 19 Oeste 42 Oeste 0 -- -- 88
2019-01-31 23:00:00 8.1 18 Sudoeste 54 Sudoeste 3.2 -- -- 92
2019-01-31 22:00:00 8.9 30 Sudoeste 54 Sudoeste 2.8 -- -- 90
2019-01-31 21:00:00 9.2 27 Sudoeste 58 Sudoeste 0.6 -- -- 91
2019-01-31 20:00:00 9.6 32 Sudoeste 61 Sudoeste 0 -- -- 87
2019-01-31 19:00:00 9.7 32 Sudoeste 60 Sudoeste 0 -- -- 88
2019-01-31 18:00:00 10.1 35 Sudoeste 60 Oeste 0 -- -- 88
2019-01-31 17:00:00 10.7 37 Sudoeste 75 Sudoeste 0.2 -- -- 87
2019-01-31 16:00:00 10.8 35 Sudoeste 56 Sudoeste 0.2 -- -- 86
2019-01-31 15:00:00 10.7 33 Sudoeste 63 Sudoeste 0 -- -- 88
2019-01-31 14:00:00 11.1 34 Sudoeste 62 Sudoeste 0 -- -- 85
2019-01-31 13:00:00 11.3 32 Sudoeste 59 Sudoeste 0 -- -- 83
2019-01-31 12:00:00 10.7 33 Sudoeste 54 Sudoeste 0 -- -- 85
2019-01-31 11:00:00 9.8 30 Sudoeste 60 Sudoeste 0 -- -- 86
2019-01-31 10:00:00 8.8 31 Sudoeste 55 Sudoeste 0 -- -- 88
2019-01-31 09:00:00 8.5 31 Sudoeste 55 Sudoeste 0 -- -- 89
2019-01-31 08:00:00 8.9 31 Sudoeste 55 Oeste 0.2 -- -- 89
2019-01-31 07:00:00 9 29 Sudoeste 49 Oeste 0 -- -- 90
2019-01-31 06:00:00 9.2 30 Oeste 57 Oeste 0 -- -- 90
2019-01-31 05:00:00 9.1 31 Oeste 54 Sudoeste 0 -- -- 90
2019-01-31 04:00:00 8.9 28 Sudoeste 49 Sudoeste 0 -- -- 92
2019-01-31 03:00:00 8.5 25 Oeste 51 Sudoeste 0 -- -- 91
2019-01-31 02:00:00 8.3 27 Sudoeste 45 Sudoeste 0.2 -- -- 92
2019-01-31 01:00:00 7.8 24 Oeste 45 Sudoeste 0.8 -- -- 93
2019-01-31 00:00:00 7 21 Oeste 44 Oeste 0.2 -- -- 93
2019-01-30 23:00:00 6.8 23 Oeste 43 Sudoeste 0.2 -- -- 92
2019-01-30 22:00:00 5 17 Sudoeste 32 Oeste 0.4 -- -- 93
2019-01-30 21:00:00 4.9 16 Sudoeste 30 Sur 1.6 -- -- 91
2019-01-30 20:00:00 4.4 10 Sudoeste 25 Sur 1.6 -- -- 91
2019-01-30 19:00:00 4.1 13 Sudoeste 23 Sudoeste 1.2 -- -- 91
2019-01-30 18:00:00 4.1 14 Sudoeste 35 Oeste 0.6 -- -- 88
2019-01-30 17:00:00 5.1 21 Sudoeste 41 Sudoeste 0 -- -- 80
2019-01-30 16:00:00 5.8 23 Oeste 40 Sudoeste 0 -- -- 67
2019-01-30 15:00:00 6.8 26 Sudoeste 45 Sudoeste 0 -- -- 56
2019-01-30 14:00:00 7 21 Oeste 36 Oeste 0 -- -- 54
2019-01-30 13:00:00 6 22 Oeste 33 Oeste 0 -- -- 59
2019-01-30 12:00:00 4.6 15 Oeste 28 Oeste 0 -- -- 67
2019-01-30 11:00:00 3.1 15 Oeste 24 Oeste 0 -- -- 70
2019-01-30 10:00:00 1.4 11 Sudoeste 24 Sudoeste 0 -- -- 78
2019-01-30 09:00:00 -0.3 11 Sudoeste 18 Sudoeste 0 -- -- 84
2019-01-30 08:00:00 0.2 8 Sudoeste 19 Sudoeste 0 -- -- 83
2019-01-30 07:00:00 0.7 9 Sudoeste 23 Oeste 0 -- -- 80
2019-01-30 06:00:00 1.1 16 Sudoeste 28 Sudoeste 0 -- -- 81
2019-01-30 05:00:00 1.2 14 Oeste 31 Oeste 0 -- -- 82
2019-01-30 04:00:00 1.3 18 Oeste 30 Oeste 0 -- -- 80
2019-01-30 03:00:00 1.6 14 Oeste 30 Oeste 0 -- -- 81
2019-01-30 02:00:00 1.8 17 Oeste 27 Oeste 0 -- -- 83
2019-01-30 01:00:00 2.1 13 Oeste 26 Oeste 0 -- -- 83
2019-01-30 00:00:00 2.4 19 Oeste 30 Oeste 0 -- -- 83
2019-01-29 23:00:00 2.4 14 Oeste 28 Oeste 0 -- -- 84
2019-01-29 22:00:00 2.8 8 Oeste 19 Sudoeste 0 -- -- 82
2019-01-29 21:00:00 3.2 7 Sudoeste 24 Oeste 0 -- -- 77
2019-01-29 20:00:00 4.9 16 Oeste 27 Oeste 0 -- -- 68
2019-01-29 19:00:00 5.4 12 Noroeste 32 Noroeste 0 -- -- 71
2019-01-29 18:00:00 7.3 17 Oeste 35 Oeste 0 -- -- 67
2019-01-29 17:00:00 8.3 21 Noroeste 53 Oeste 0 -- -- 76
2019-01-29 16:00:00 10.9 36 Oeste 62 Oeste 0 -- -- 65
2019-01-29 15:00:00 10.4 30 Oeste 54 Oeste 0 -- -- 71
2019-01-29 14:00:00 8 25 Oeste 54 Sudoeste 0 -- -- 79
2019-01-29 13:00:00 6.8 31 Sudoeste 54 Sudoeste 0 -- -- 83
2019-01-29 12:00:00 5.8 28 Sudoeste 51 Sudoeste 0.2 -- -- 88
2019-01-29 11:00:00 4.2 21 Sudoeste 39 Sudoeste 0 -- -- 92
2019-01-29 10:00:00 3.1 18 Sudoeste 30 Sudoeste 0 -- -- 90
2019-01-29 09:00:00 1.5 9 Sudoeste 17 Sudoeste 0 -- -- 88
2019-01-29 08:00:00 1.7 11 Sudoeste 23 Sudoeste 0 -- -- 83
2019-01-29 07:00:00 2 14 Sudoeste 23 Sudoeste 0 -- -- 85
2019-01-29 06:00:00 1.8 12 Sudoeste 22 Sudoeste 0 -- -- 85
2019-01-29 05:00:00 0 5 Sudoeste 11 Sudoeste 0 -- -- 90
2019-01-29 04:00:00 -2.5 3 Sudoeste 5 Sudoeste 0 -- -- 92
2019-01-29 03:00:00 -2.5 0 Calma 5 Oeste 0 -- -- 89
2019-01-29 02:00:00 -2.1 3 Sudoeste 6 Sudoeste 0 -- -- 88
2019-01-29 01:00:00 -1.7 2 Sur 8 Sudoeste 0 -- -- 87
2019-01-29 00:00:00 -1.5 0 Calma 5 Sur 0 -- -- 82
2019-01-28 23:00:00 -0.1 3 Sur 4 Sudeste 0 -- -- 83
2019-01-28 22:00:00 0.6 3 Sur 4 Sur 0 -- -- 79
2019-01-28 21:00:00 2.4 2 Sudoeste 7 Noroeste 0 -- -- 74
2019-01-28 20:00:00 4.5 6 Sudeste 19 Norte 0 -- -- 72
2019-01-28 19:00:00 6.1 11 Norte 21 Noroeste 0 -- -- 60
2019-01-28 18:00:00 9 9 Noroeste 32 Noroeste 0 -- -- 53
2019-01-28 17:00:00 11.1 24 Noroeste 45 Noroeste 0 -- -- 46
2019-01-28 16:00:00 11.4 31 Noroeste 50 Noroeste 0 -- -- 45
2019-01-28 15:00:00 12.7 26 Noroeste 44 Noroeste 0 -- -- 42
2019-01-28 14:00:00 12.7 25 Noroeste 43 Oeste 0 -- -- 47
2019-01-28 13:00:00 10.5 24 Oeste 39 Oeste 0 -- -- 63
2019-01-28 12:00:00 7.9 27 Oeste 44 Oeste 0 -- -- 75
2019-01-28 11:00:00 5.5 31 Oeste 46 Oeste 0 -- -- 82
2019-01-28 10:00:00 2.9 26 Oeste 40 Oeste 0 -- -- 87
2019-01-28 09:00:00 1.4 18 Oeste 32 Oeste 0 -- -- 90
2019-01-28 08:00:00 1.1 21 Oeste 34 Oeste 0 -- -- 89
2019-01-28 07:00:00 1.3 18 Oeste 35 Oeste 0 -- -- 87
2019-01-28 06:00:00 1.6 18 Sudoeste 38 Sudoeste 0 -- -- 84
2019-01-28 05:00:00 1.1 15 Oeste 29 Sudoeste 0 -- -- 84
2019-01-28 04:00:00 1.8 17 Oeste 32 Sudoeste 0 -- -- 80
2019-01-28 03:00:00 0.9 9 Sudoeste 18 Oeste 0 -- -- 82
2019-01-28 02:00:00 1.4 10 Oeste 22 Oeste 0 -- -- 78
2019-01-28 01:00:00 1.1 8 Oeste 16 Sudoeste 0 -- -- 80
2019-01-28 00:00:00 1 4 Sudoeste 17 Oeste 0 -- -- 76
2019-01-27 23:00:00 0.9 3 Sudoeste 14 Oeste 0 -- -- 74
2019-01-27 22:00:00 1.7 8 Oeste 17 Noroeste 0 -- -- 69
2019-01-27 21:00:00 2.7 4 Sudoeste 15 Noroeste 0 -- -- 63
2019-01-27 20:00:00 3 9 Noroeste 37 Noroeste 0 -- -- 64
2019-01-27 19:00:00 5 18 Noroeste 34 Noroeste 0 -- -- 58
2019-01-27 18:00:00 7.5 14 Noroeste 23 Noroeste 0 -- -- 53
2019-01-27 17:00:00 9.3 19 Noroeste 32 Norte 0 -- -- 48
2019-01-27 16:00:00 9.1 18 Noroeste 41 Noroeste 0 -- -- 49
2019-01-27 15:00:00 9.8 19 Noroeste 36 Noroeste 0 -- -- 46
2019-01-27 14:00:00 9 23 Noroeste 42 Noroeste 0 -- -- 48
2019-01-27 13:00:00 8 19 Oeste 44 Noroeste 0 -- -- 60
2019-01-27 12:00:00 7.1 22 Oeste 36 Oeste 0 -- -- 66
2019-01-27 11:00:00 5.6 15 Oeste 30 Oeste 0 -- -- 74
2019-01-27 10:00:00 3.4 15 Oeste 28 Oeste 0 -- -- 83
2019-01-27 09:00:00 1.6 12 Oeste 26 Oeste 0 -- -- 90
2019-01-27 08:00:00 1.4 9 Sudoeste 22 Sudoeste 0 -- -- 92
2019-01-27 07:00:00 0.7 5 Oeste 13 Oeste 0 -- -- 91
2019-01-27 06:00:00 1.1 9 Oeste 15 Oeste 0 -- -- 91
2019-01-27 05:00:00 1.1 10 Noroeste 17 Oeste 0 -- -- 90
2019-01-27 04:00:00 1.9 3 Norte 15 Oeste 0 -- -- 84
2019-01-27 03:00:00 3.3 5 Sudoeste 19 Sudoeste 0 -- -- 86
2019-01-27 02:00:00 3.2 13 Sudoeste 26 Sudoeste 0 -- -- 89
2019-01-27 01:00:00 2.5 6 Sudoeste 17 Sudoeste 0 -- -- 90
2019-01-27 00:00:00 2.2 7 Sudoeste 14 Sudoeste 0 -- -- 94
2019-01-26 23:00:00 -1.3 2 Oeste 4 Norte 0 -- -- 93
2019-01-26 22:00:00 -0.5 0 Calma 2 Nordeste 0 -- -- 89
2019-01-26 21:00:00 1.5 0 Calma 4 Sur 0 -- -- 84
2019-01-26 20:00:00 4.1 2 Norte 6 Sur 0 -- -- 78
2019-01-26 19:00:00 7.1 4 Sur 8 Oeste 0 -- -- 76
2019-01-26 18:00:00 9.5 7 Oeste 16 Sudoeste 0 -- -- 69
2019-01-26 17:00:00 10.2 10 Oeste 23 Oeste 0 -- -- 64
2019-01-26 16:00:00 10.2 14 Oeste 25 Oeste 0 -- -- 63
2019-01-26 15:00:00 10.1 9 Oeste 19 Sudoeste 0 -- -- 65
2019-01-26 14:00:00 8.1 3 Sur 10 Oeste 0 -- -- 76
2019-01-26 13:00:00 5.9 6 Oeste 10 Oeste 0 -- -- 85
2019-01-26 12:00:00 1.8 3 Sudoeste 5 Sudoeste 0 -- -- 97
2019-01-26 11:00:00 -1.3 0 Calma 3 Sur 0 -- -- 97
2019-01-26 10:00:00 -3.2 0 Calma 2 Este 0 -- -- 96
2019-01-26 09:00:00 -4.2 0 Calma 2 Nordeste 0 -- -- 95
2019-01-26 08:00:00 -4.3 0 Calma 4 Este 0 -- -- 94
2019-01-26 07:00:00 -3.8 0 Calma 5 Sudoeste 0 -- -- 93
2019-01-26 06:00:00 -3.2 2 Sudoeste 4 Sudoeste 0 -- -- 94
2019-01-26 05:00:00 -2.9 0 Calma 3 Sudoeste 0 -- -- 92
2019-01-26 04:00:00 -1.9 0 Calma 3 Sur 0 -- -- 91
2019-01-26 03:00:00 -0.2 0 Calma 7 Nordeste 0 -- -- 92
2019-01-26 02:00:00 0.9 6 Nordeste 15 Este 0 -- -- 89
2019-01-26 01:00:00 1.2 8 Nordeste 17 Este 0 -- -- 87
2019-01-26 00:00:00 1.4 6 Este 14 Este 0 -- -- 87
2019-01-25 23:00:00 3.2 11 Este 17 Este 0 -- -- 84
2019-01-25 22:00:00 3.9 10 Este 19 Este 0 -- -- 83
2019-01-25 21:00:00 4.7 14 Este 25 Este 0 -- -- 83
2019-01-25 20:00:00 5.2 14 Este 24 Este 0 -- -- 82
2019-01-25 19:00:00 5.9 13 Este 24 Este 0 -- -- 80
2019-01-25 18:00:00 8.5 17 Nordeste 30 Este 0 -- -- 72
2019-01-25 17:00:00 11 12 Nordeste 21 Nordeste 0 -- -- 63
2019-01-25 16:00:00 11.6 13 Nordeste 21 Nordeste 0 -- -- 61
2019-01-25 15:00:00 10.7 8 Nordeste 16 Nordeste 0 -- -- 63
2019-01-25 14:00:00 11 5 Nordeste 10 Norte 0 -- -- 65
2019-01-25 13:00:00 10.1 4 Noroeste 13 Oeste 0 -- -- 70
2019-01-25 12:00:00 7.2 8 Sudoeste 14 Sudoeste 0 -- -- 84
2019-01-25 11:00:00 2.8 9 Oeste 16 Oeste 0 -- -- 98
2019-01-25 10:00:00 -0.5 0 Calma 5 Sudoeste 0 -- -- 98
2019-01-25 09:00:00 -2 2 Oeste 6 Sudoeste 0 -- -- 96
2019-01-25 08:00:00 -1.6 3 Noroeste 8 Noroeste 0 -- -- 95
2019-01-25 07:00:00 -0.9 2 Oeste 5 Oeste 0 -- -- 96
2019-01-25 06:00:00 -0.7 0 Calma 5 Sudoeste 0 -- -- 95
2019-01-25 05:00:00 -0.5 2 Sudoeste 5 Oeste 0 -- -- 95
2019-01-25 04:00:00 0.1 3 Sudoeste 6 Sudoeste 0 -- -- 94
2019-01-25 03:00:00 0.9 2 Sur 8 Oeste 0 -- -- 94
2019-01-25 02:00:00 1.8 3 Sudeste 9 Sudoeste 0 -- -- 94
2019-01-25 01:00:00 3 5 Sudoeste 12 Sudoeste 0 -- -- 93
2019-01-25 00:00:00 3 5 Oeste 9 Oeste 0 -- -- 93
2019-01-24 23:00:00 3.3 3 Oeste 13 Nordeste 0 -- -- 91
2019-01-24 22:00:00 3.4 2 Nordeste 5 Nordeste 0 -- -- 88
2019-01-24 21:00:00 5.4 3 Noroeste 10 Este 0 -- -- 86
2019-01-24 20:00:00 6.7 9 Este 14 Nordeste 0 -- -- 84
2019-01-24 19:00:00 7.8 10 Nordeste 23 Nordeste 0 -- -- 81
2019-01-24 18:00:00 9.5 14 Nordeste 26 Nordeste 0 -- -- 76
2019-01-24 17:00:00 10.8 17 Nordeste 27 Nordeste 0 -- -- 73
2019-01-24 16:00:00 10.6 4 Sudeste 11 Sudeste 0 -- -- 74
2019-01-24 15:00:00 10.5 6 Sudeste 12 Sur 0 -- -- 74
2019-01-24 14:00:00 10.7 5 Sudeste 12 Sudeste 0 -- -- 73
2019-01-24 13:00:00 9.9 4 Sur 11 Este 0 -- -- 76
2019-01-24 12:00:00 8.4 3 Oeste 12 Sudoeste 0 -- -- 79
2019-01-24 11:00:00 6.7 5 Sudoeste 9 Oeste 0 -- -- 86
2019-01-24 10:00:00 5.2 2 Sudoeste 6 Oeste 0 -- -- 89
2019-01-24 09:00:00 4.7 0 Calma 13 Sudoeste 0 -- -- 89
2019-01-24 08:00:00 4.9 5 Sudoeste 10 Sudoeste 0 -- -- 89
2019-01-24 07:00:00 4.5 0 Calma 8 Oeste 0 -- -- 88
2019-01-24 06:00:00 4.7 4 Oeste 20 Sudoeste 0 -- -- 88
2019-01-24 05:00:00 5.1 5 Sudoeste 11 Oeste 0 -- -- 88
2019-01-24 04:00:00 3.9 3 Sudoeste 7 Sudoeste 0 -- -- 89
2019-01-24 03:00:00 3.5 4 Oeste 8 Sudoeste 0 -- -- 88
2019-01-24 02:00:00 3.5 2 Oeste 7 Sudeste 0 -- -- 85
2019-01-24 01:00:00 4.3 0 Calma 4 Noroeste 0 -- -- 84
2019-01-24 00:00:00 5.8 2 Sudoeste 9 Sudoeste 0 -- -- 79